Time;durP1;ratioP1;P1;durP2;ratioP2;P2;SDS_P1;SDS_P2;PMS_P1;PMS_P2;Temp;Humidity;BMP_temperature;BMP_pressure;BME280_temperature;BME280_humidity;BME280_pressure;Samples;Min_cycle;Max_cycle;Signal;HPM_P1;HPM_P2
2023/01/01 00:02:06;;;;;;;25.00;16.40;;;;;;;;;;4942356;28;20183;-87
2023/01/01 00:04:33;;;;;;;22.23;15.27;;;;;;;;;;4942153;28;20175;-87
2023/01/01 00:06:59;;;;;;;23.17;15.97;;;;;;;;;;4974742;28;20185;-81
2023/01/01 00:12:10;;;;;;;21.63;13.47;;;;;;;;;;4980430;28;20186;-81
2023/01/01 00:14:38;;;;;;;25.10;14.27;;;;;;;;;;4961415;28;20186;-82
2023/01/01 00:17:04;;;;;;;24.80;17.07;;;;;;;;;;4959296;28;20335;-80
2023/01/01 00:19:30;;;;;;;51.07;37.80;;;;;;;;;;4953856;28;20209;-81
2023/01/01 00:21:56;;;;;;;39.47;28.07;;;;;;;;;;4947594;28;20281;-81
2023/01/01 00:24:22;;;;;;;34.87;20.97;;;;;;;;;;4952337;28;20324;-81
2023/01/01 00:26:48;;;;;;;28.53;17.83;;;;;;;;;;4976755;28;20278;-81
2023/01/01 00:29:14;;;;;;;15.87;12.10;;;;;;;;;;4961863;28;20312;-81
2023/01/01 00:31:40;;;;;;;12.03;6.87;;;;;;;;;;4962958;28;20203;-81
2023/01/01 00:34:06;;;;;;;17.93;9.97;;;;;;;;;;4963528;28;20330;-81
2023/01/01 00:36:32;;;;;;;12.50;6.23;;;;;;;;;;4974561;28;20190;-81
2023/01/01 00:38:58;;;;;;;13.43;7.00;;;;;;;;;;4955733;28;20190;-81
2023/01/01 00:41:24;;;;;;;15.20;6.70;;;;;;;;;;4971442;28;20244;-81
2023/01/01 00:43:50;;;;;;;13.37;6.77;;;;;;;;;;4991137;28;20189;-81
2023/01/01 00:46:16;;;;;;;14.87;6.33;;;;;;;;;;5000456;28;20177;-82
2023/01/01 00:48:42;;;;;;;12.83;6.07;;;;;;;;;;5000799;28;20208;-81
2023/01/01 00:51:09;;;;;;;14.90;6.27;;;;;;;;;;4980933;28;20178;-81
2023/01/01 00:53:35;;;;;;;9.70;5.40;;;;;;;;;;4981003;28;20182;-81
2023/01/01 00:56:01;;;;;;;11.03;5.03;;;;;;;;;;4967819;28;20210;-80
2023/01/01 00:58:27;;;;;;;13.20;4.63;;;;;;;;;;4958167;28;20261;-81
2023/01/01 01:00:53;;;;;;;12.20;4.47;;;;;;;;;;4945203;28;20186;-81
2023/01/01 01:03:29;;;;;;;12.77;4.13;;;;;;;;;;4958665;28;20201;-81
2023/01/01 01:05:56;;;;;;;9.00;4.80;;;;;;;;;;4961207;28;20273;-81
2023/01/01 01:08:22;;;;;;;9.17;4.10;;;;;;;;;;4960946;28;20222;-81
2023/01/01 01:10:48;;;;;;;6.80;3.20;;;;;;;;;;4964361;28;20174;-81
2023/01/01 01:13:14;;;;;;;12.50;4.37;;;;;;;;;;4961616;28;20281;-81
2023/01/01 01:15:41;;;;;;;10.87;4.30;;;;;;;;;;4977092;28;20213;-82
2023/01/01 01:18:07;;;;;;;12.73;4.23;;;;;;;;;;4983602;28;20185;-81
2023/01/01 01:20:33;;;;;;;11.83;4.10;;;;;;;;;;4976521;28;20183;-81
2023/01/01 01:22:59;;;;;;;8.10;3.40;;;;;;;;;;4960538;28;20264;-86
2023/01/01 01:25:25;;;;;;;7.70;3.20;;;;;;;;;;4975832;28;20186;-86
2023/01/01 01:27:51;;;;;;;10.70;3.53;;;;;;;;;;4968380;28;20230;-86
2023/01/01 01:30:17;;;;;;;6.60;3.00;;;;;;;;;;4968559;28;20222;-86
2023/01/01 01:32:43;;;;;;;8.67;3.33;;;;;;;;;;4955241;28;20183;-86
2023/01/01 01:35:09;;;;;;;9.23;3.07;;;;;;;;;;4967999;28;20178;-87
2023/01/01 01:37:35;;;;;;;8.30;3.23;;;;;;;;;;4959667;28;20274;-85
2023/01/01 01:40:02;;;;;;;9.40;3.27;;;;;;;;;;4960439;28;20183;-85
2023/01/01 01:42:28;;;;;;;7.17;2.90;;;;;;;;;;4944859;28;20190;-86
2023/01/01 01:44:56;;;;;;;9.77;3.40;;;;;;;;;;4964727;28;20178;-85
2023/01/01 01:47:22;;;;;;;6.97;2.93;;;;;;;;;;4976689;28;20186;-86
2023/01/01 01:49:50;;;;;;;7.90;3.03;;;;;;;;;;4967549;28;20190;-85
2023/01/01 01:52:17;;;;;;;5.53;2.77;;;;;;;;;;4974107;28;20186;-86
2023/01/01 01:54:43;;;;;;;6.00;2.83;;;;;;;;;;4960630;28;20191;-86
2023/01/01 01:57:10;;;;;;;6.53;3.03;;;;;;;;;;4946373;28;20186;-82
2023/01/01 01:59:40;;;;;;;8.83;2.90;;;;;;;;;;4975822;28;20191;-80
2023/01/01 02:02:09;;;;;;;9.37;3.37;;;;;;;;;;4960182;28;20237;-80
2023/01/01 02:04:36;;;;;;;8.87;3.03;;;;;;;;;;4971914;28;20294;-80
2023/01/01 02:07:02;;;;;;;10.07;2.90;;;;;;;;;;4958224;28;20190;-80
2023/01/01 02:09:28;;;;;;;9.73;3.10;;;;;;;;;;4959733;28;20223;-80
2023/01/01 02:11:54;;;;;;;10.53;3.07;;;;;;;;;;4951416;28;20230;-80
2023/01/01 02:14:20;;;;;;;7.07;2.80;;;;;;;;;;4975909;28;20190;-81
2023/01/01 02:16:49;;;;;;;6.67;2.83;;;;;;;;;;4963157;28;20181;-81
2023/01/01 02:19:34;;;;;;;8.50;3.03;;;;;;;;;;4966327;28;20198;-81
2023/01/01 02:24:52;;;;;;;5.17;2.73;;;;;;;;;;4988160;28;20283;-88
2023/01/01 02:27:32;;;;;;;11.07;2.97;;;;;;;;;;4977957;28;20186;-88
2023/01/01 02:30:01;;;;;;;6.77;2.87;;;;;;;;;;4978632;28;20185;-86
2023/01/01 02:32:31;;;;;;;11.77;2.97;;;;;;;;;;4977983;28;20174;-87
2023/01/01 02:34:57;;;;;;;8.17;2.87;;;;;;;;;;4978260;28;20186;-87
2023/01/01 02:37:25;;;;;;;6.37;2.60;;;;;;;;;;4978302;28;20271;-86
2023/01/01 02:39:54;;;;;;;6.57;2.83;;;;;;;;;;4978475;28;20190;-87
2023/01/01 02:42:22;;;;;;;7.67;2.70;;;;;;;;;;4978211;28;20178;-86
2023/01/01 02:44:50;;;;;;;7.13;3.00;;;;;;;;;;4968113;28;20185;-86
2023/01/01 02:47:17;;;;;;;6.97;2.63;;;;;;;;;;4977948;28;20269;-80
2023/01/01 02:49:52;;;;;;;8.17;2.70;;;;;;;;;;4994600;28;20182;-81
2023/01/01 02:52:30;;;;;;;11.03;2.73;;;;;;;;;;4977868;28;20186;-80
2023/01/01 02:55:04;;;;;;;8.73;3.13;;;;;;;;;;4977586;28;20249;-80
2023/01/01 02:57:30;;;;;;;5.87;2.47;;;;;;;;;;4958687;28;20211;-80
2023/01/01 03:02:43;;;;;;;9.43;3.00;;;;;;;;;;4995347;28;20192;-80
2023/01/01 03:05:25;;;;;;;5.63;2.20;;;;;;;;;;4977826;28;20213;-81
2023/01/01 03:08:10;;;;;;;8.87;2.60;;;;;;;;;;4977468;28;20210;-80
2023/01/01 03:10:36;;;;;;;6.27;2.53;;;;;;;;;;4993963;28;20192;-80
2023/01/01 03:13:07;;;;;;;8.70;2.90;;;;;;;;;;4985221;28;20183;-80
2023/01/01 03:15:45;;;;;;;7.93;2.67;;;;;;;;;;4974501;28;20193;-80
2023/01/01 03:18:15;;;;;;;5.90;2.40;;;;;;;;;;4988171;28;20197;-80
2023/01/01 03:20:43;;;;;;;6.67;2.70;;;;;;;;;;4993632;28;20182;-86
2023/01/01 03:23:14;;;;;;;8.40;2.80;;;;;;;;;;4977954;28;20237;-87
2023/01/01 03:25:44;;;;;;;5.83;2.67;;;;;;;;;;4978329;28;20194;-86
2023/01/01 03:28:18;;;;;;;9.33;2.63;;;;;;;;;;4992560;28;20217;-86
2023/01/01 03:30:45;;;;;;;6.87;2.50;;;;;;;;;;4974882;28;20193;-86
2023/01/01 03:33:14;;;;;;;6.37;2.63;;;;;;;;;;4974828;28;20186;-86
2023/01/01 03:35:43;;;;;;;6.90;2.60;;;;;;;;;;4993408;28;20236;-80
2023/01/01 03:38:29;;;;;;;7.50;2.50;;;;;;;;;;4977280;28;20217;-81
2023/01/01 03:41:03;;;;;;;6.57;2.50;;;;;;;;;;4984083;28;20260;-80
2023/01/01 03:43:48;;;;;;;7.73;2.87;;;;;;;;;;4977546;28;20190;-80
2023/01/01 03:46:16;;;;;;;8.07;3.10;;;;;;;;;;4977246;28;20185;-81
2023/01/01 03:48:59;;;;;;;7.80;2.70;;;;;;;;;;4979819;28;20268;-80
2023/01/01 03:51:24;;;;;;;6.90;2.80;;;;;;;;;;4961325;28;20190;-80
2023/01/01 03:53:52;;;;;;;6.03;2.50;;;;;;;;;;4977221;28;20189;-86
2023/01/01 03:56:37;;;;;;;8.83;2.90;;;;;;;;;;4975583;28;20193;-86
2023/01/01 03:59:12;;;;;;;6.17;2.70;;;;;;;;;;4986954;28;20182;-87
2023/01/01 04:01:40;;;;;;;7.33;2.50;;;;;;;;;;4978737;28;20200;-86
2023/01/01 04:04:07;;;;;;;8.97;2.60;;;;;;;;;;4979887;28;20276;-86
2023/01/01 04:06:33;;;;;;;4.27;2.43;;;;;;;;;;4964519;28;20209;-86
2023/01/01 04:08:59;;;;;;;7.83;2.70;;;;;;;;;;4979830;28;20226;-88
2023/01/01 04:14:12;;;;;;;9.70;2.50;;;;;;;;;;4982990;28;20197;-88
2023/01/01 04:16:38;;;;;;;7.57;2.50;;;;;;;;;;4964747;28;20185;-88
2023/01/01 04:19:05;;;;;;;7.20;2.50;;;;;;;;;;4979862;28;20193;-89
2023/01/01 04:21:32;;;;;;;6.17;2.30;;;;;;;;;;4964700;28;20203;-88
2023/01/01 04:23:58;;;;;;;7.00;2.47;;;;;;;;;;4964330;28;20293;-88
2023/01/01 04:26:24;;;;;;;8.23;2.30;;;;;;;;;;4965280;28;20190;-80
2023/01/01 04:28:50;;;;;;;7.43;2.10;;;;;;;;;;4964451;28;20261;-81
2023/01/01 04:31:16;;;;;;;5.60;2.33;;;;;;;;;;4946427;28;20201;-80
2023/01/01 04:33:42;;;;;;;4.60;2.30;;;;;;;;;;4945368;28;20273;-80
2023/01/01 04:36:09;;;;;;;6.07;2.23;;;;;;;;;;4961482;28;20186;-80
2023/01/01 04:38:35;;;;;;;7.13;2.63;;;;;;;;;;4980507;28;20182;-81
2023/01/01 04:41:02;;;;;;;8.70;2.30;;;;;;;;;;4980081;28;20220;-80
2023/01/01 04:43:28;;;;;;;7.80;2.33;;;;;;;;;;4980445;28;20193;-80
2023/01/01 04:45:55;;;;;;;7.07;2.27;;;;;;;;;;4963975;28;20190;-80
2023/01/01 04:48:21;;;;;;;7.93;2.20;;;;;;;;;;4980015;28;20264;-80
2023/01/01 04:50:53;;;;;;;9.77;2.30;;;;;;;;;;4963967;28;20191;-80
2023/01/01 04:53:19;;;;;;;6.07;2.40;;;;;;;;;;4997182;28;20236;-80
2023/01/01 04:55:45;;;;;;;5.80;2.30;;;;;;;;;;4980503;28;20278;-80
2023/01/01 04:58:11;;;;;;;6.50;2.27;;;;;;;;;;4980286;28;20185;-81
2023/01/01 05:00:37;;;;;;;9.17;2.63;;;;;;;;;;4979632;28;20186;-88
2023/01/01 05:03:03;;;;;;;9.13;2.30;;;;;;;;;;4981141;28;20194;-87
2023/01/01 05:05:29;;;;;;;8.47;3.70;;;;;;;;;;4972159;28;20186;-87
2023/01/01 05:07:55;;;;;;;10.03;3.30;;;;;;;;;;4964762;28;20248;-86
2023/01/01 05:10:21;;;;;;;7.97;2.70;;;;;;;;;;4979983;28;20177;-87
2023/01/01 05:12:47;;;;;;;6.90;2.70;;;;;;;;;;4964036;28;20198;-87
2023/01/01 05:15:13;;;;;;;6.87;2.30;;;;;;;;;;4980098;28;20265;-88
2023/01/01 05:17:39;;;;;;;6.73;2.53;;;;;;;;;;4964474;28;20281;-81
2023/01/01 05:20:05;;;;;;;9.67;2.43;;;;;;;;;;4963751;28;20228;-80
2023/01/01 05:22:31;;;;;;;9.37;2.40;;;;;;;;;;4963800;28;20221;-80
2023/01/01 05:24:57;;;;;;;6.47;2.20;;;;;;;;;;4979662;28;20185;-80
2023/01/01 05:27:23;;;;;;;5.60;2.27;;;;;;;;;;4959421;28;20194;-81
2023/01/01 05:29:49;;;;;;;6.97;2.50;;;;;;;;;;4976668;28;20234;-80
2023/01/01 05:32:15;;;;;;;8.33;2.53;;;;;;;;;;4960571;28;20222;-87
2023/01/01 05:34:41;;;;;;;6.40;2.33;;;;;;;;;;4963033;28;20245;-86
2023/01/01 05:37:07;;;;;;;4.87;2.13;;;;;;;;;;4976587;28;20332;-86
2023/01/01 05:39:33;;;;;;;9.57;2.67;;;;;;;;;;4963537;28;20273;-86
2023/01/01 05:41:59;;;;;;;7.10;2.33;;;;;;;;;;4979871;28;20190;-86
2023/01/01 05:44:25;;;;;;;6.27;2.30;;;;;;;;;;4996946;28;20178;-86
2023/01/01 05:46:52;;;;;;;6.33;2.20;;;;;;;;;;4995753;28;20237;-86
2023/01/01 05:49:18;;;;;;;6.60;2.20;;;;;;;;;;4988548;28;20214;-87
2023/01/01 05:51:44;;;;;;;4.00;1.80;;;;;;;;;;4979798;28;20182;-88
2023/01/01 05:54:10;;;;;;;6.57;2.03;;;;;;;;;;4963569;28;20182;-88
2023/01/01 05:56:36;;;;;;;6.60;2.10;;;;;;;;;;4979326;28;20185;-88
2023/01/01 05:59:02;;;;;;;5.53;1.83;;;;;;;;;;4963529;28;20190;-87
2023/01/01 06:01:29;;;;;;;6.60;1.77;;;;;;;;;;4963816;28;20192;-89
2023/01/01 06:03:56;;;;;;;7.03;2.10;;;;;;;;;;4979689;28;20177;-88
2023/01/01 06:06:24;;;;;;;5.63;2.10;;;;;;;;;;4980037;28;20193;-80
2023/01/01 06:08:50;;;;;;;7.13;2.30;;;;;;;;;;4979004;28;20288;-80
2023/01/01 06:11:17;;;;;;;4.97;2.03;;;;;;;;;;4996123;28;20246;-80
2023/01/01 06:13:43;;;;;;;9.17;1.97;;;;;;;;;;4978997;28;20185;-80
2023/01/01 06:16:10;;;;;;;5.60;2.23;;;;;;;;;;4963262;28;20182;-80
2023/01/01 06:18:36;;;;;;;6.90;2.07;;;;;;;;;;4996238;28;20186;-81
2023/01/01 06:21:06;;;;;;;7.93;2.33;;;;;;;;;;4978196;28;20178;-80
2023/01/01 06:23:32;;;;;;;8.90;2.13;;;;;;;;;;4978782;28;20276;-80
2023/01/01 06:26:04;;;;;;;7.60;2.00;;;;;;;;;;4996024;28;20178;-80
2023/01/01 06:28:30;;;;;;;4.97;2.03;;;;;;;;;;4978634;28;20300;-80
2023/01/01 06:30:59;;;;;;;4.10;1.80;;;;;;;;;;4974399;28;20186;-80
2023/01/01 06:33:24;;;;;;;4.20;2.00;;;;;;;;;;4975598;28;20183;-80
2023/01/01 06:35:50;;;;;;;4.80;2.23;;;;;;;;;;4976991;28;20186;-80
2023/01/01 06:38:16;;;;;;;6.40;2.10;;;;;;;;;;4962547;28;20194;-80
2023/01/01 06:40:42;;;;;;;5.50;1.90;;;;;;;;;;4975221;28;20187;-80
2023/01/01 06:43:08;;;;;;;7.83;2.00;;;;;;;;;;4975157;28;20210;-80
2023/01/01 06:45:34;;;;;;;4.70;1.73;;;;;;;;;;4974689;28;20251;-80
2023/01/01 06:48:00;;;;;;;5.20;1.90;;;;;;;;;;4962211;28;20289;-80
2023/01/01 06:50:26;;;;;;;6.47;1.93;;;;;;;;;;4993273;28;20188;-80
2023/01/01 06:52:52;;;;;;;5.57;2.10;;;;;;;;;;4994629;28;20174;-80
2023/01/01 06:55:18;;;;;;;6.87;2.20;;;;;;;;;;4962431;28;20253;-80
2023/01/01 06:57:44;;;;;;;5.37;1.93;;;;;;;;;;4962367;28;20189;-81
2023/01/01 07:00:11;;;;;;;6.90;2.07;;;;;;;;;;4962177;28;20197;-80
2023/01/01 07:02:37;;;;;;;5.03;2.10;;;;;;;;;;4962213;28;20193;-80
2023/01/01 07:05:03;;;;;;;5.83;1.80;;;;;;;;;;4978193;28;20182;-86
2023/01/01 07:07:29;;;;;;;6.07;1.70;;;;;;;;;;4978403;28;20182;-86
2023/01/01 07:09:55;;;;;;;3.80;1.50;;;;;;;;;;4962445;28;20189;-86
2023/01/01 07:12:21;;;;;;;4.53;1.40;;;;;;;;;;4962287;28;20182;-80
2023/01/01 07:14:47;;;;;;;5.57;1.63;;;;;;;;;;4977809;28;20197;-80
2023/01/01 07:17:13;;;;;;;4.17;1.30;;;;;;;;;;4977639;28;20181;-80
2023/01/01 07:19:39;;;;;;;4.73;1.40;;;;;;;;;;4961626;28;20182;-80
2023/01/01 07:22:05;;;;;;;5.13;1.40;;;;;;;;;;4978074;28;20201;-80
2023/01/01 07:24:31;;;;;;;4.57;1.37;;;;;;;;;;4977962;28;20296;-80
2023/01/01 07:26:57;;;;;;;3.10;1.20;;;;;;;;;;4961887;28;20190;-80
2023/01/01 07:29:23;;;;;;;2.70;1.30;;;;;;;;;;4961859;28;20280;-81
2023/01/01 07:31:49;;;;;;;4.40;1.50;;;;;;;;;;4977514;28;20170;-80
2023/01/01 07:34:17;;;;;;;4.40;1.33;;;;;;;;;;4961838;28;20194;-80
2023/01/01 07:36:44;;;;;;;3.33;1.47;;;;;;;;;;4977809;28;20186;-81
2023/01/01 07:39:10;;;;;;;3.83;1.40;;;;;;;;;;4977829;28;20189;-80
2023/01/01 07:41:36;;;;;;;5.53;1.57;;;;;;;;;;4994744;28;20179;-81
2023/01/01 07:44:02;;;;;;;4.17;1.30;;;;;;;;;;4961779;28;20189;-80
2023/01/01 07:46:28;;;;;;;4.07;1.30;;;;;;;;;;4961744;28;20197;-89
2023/01/01 07:48:55;;;;;;;4.13;1.30;;;;;;;;;;4961855;28;20218;-88
2023/01/01 07:51:22;;;;;;;2.90;1.40;;;;;;;;;;4962309;28;20192;-88
2023/01/01 07:53:48;;;;;;;5.57;1.53;;;;;;;;;;4976839;28;20186;-87
2023/01/01 07:56:14;;;;;;;4.53;1.40;;;;;;;;;;4977129;28;20186;-88
2023/01/01 07:58:40;;;;;;;5.13;1.60;;;;;;;;;;4993265;28;20249;-87
2023/01/01 08:01:09;;;;;;;7.53;1.50;;;;;;;;;;4993381;28;20213;-88
2023/01/01 08:03:35;;;;;;;4.47;1.47;;;;;;;;;;4958202;28;20183;-87
2023/01/01 08:06:05;;;;;;;3.87;1.30;;;;;;;;;;4958587;28;20245;-86
2023/01/01 08:08:31;;;;;;;4.00;1.20;;;;;;;;;;4975524;28;20206;-88
2023/01/01 08:11:01;;;;;;;4.83;1.37;;;;;;;;;;4961394;28;20281;-87
2023/01/01 08:13:27;;;;;;;7.10;1.47;;;;;;;;;;4961839;28;20215;-88
2023/01/01 08:15:54;;;;;;;5.33;1.80;;;;;;;;;;4961252;28;20182;-88
2023/01/01 08:18:20;;;;;;;5.83;1.40;;;;;;;;;;4993153;28;20209;-87
2023/01/01 08:20:46;;;;;;;3.80;1.43;;;;;;;;;;4957899;28;20183;-80
2023/01/01 08:23:12;;;;;;;6.60;1.50;;;;;;;;;;4956101;23;20236;-86
2023/01/01 08:25:38;;;;;;;7.00;1.50;;;;;;;;;;4942070;28;20182;-86
2023/01/01 08:28:04;;;;;;;4.00;1.57;;;;;;;;;;4948395;28;20209;-86
2023/01/01 08:30:30;;;;;;;5.63;1.57;;;;;;;;;;4951561;28;20194;-86
2023/01/01 08:32:56;;;;;;;7.00;1.70;;;;;;;;;;4968016;28;20326;-86
2023/01/01 08:35:22;;;;;;;5.07;1.60;;;;;;;;;;4957495;28;20280;-87
2023/01/01 08:37:48;;;;;;;5.80;1.60;;;;;;;;;;4945387;28;20188;-80
2023/01/01 08:40:14;;;;;;;3.87;1.30;;;;;;;;;;4956106;28;20286;-80
2023/01/01 08:42:40;;;;;;;5.43;1.43;;;;;;;;;;4964201;28;20273;-80
2023/01/01 08:45:07;;;;;;;5.27;1.67;;;;;;;;;;4960630;28;20257;-80
2023/01/01 08:47:33;;;;;;;5.47;1.53;;;;;;;;;;4968975;28;20179;-80
2023/01/01 08:49:59;;;;;;;6.00;1.80;;;;;;;;;;4961492;28;20189;-80
2023/01/01 08:52:25;;;;;;;5.63;1.70;;;;;;;;;;4969745;28;20277;-86
2023/01/01 08:54:51;;;;;;;6.73;1.60;;;;;;;;;;4955068;28;20193;-87
2023/01/01 08:57:17;;;;;;;5.30;1.60;;;;;;;;;;4957779;28;20179;-87
2023/01/01 08:59:43;;;;;;;6.20;1.50;;;;;;;;;;4956847;28;20210;-87
2023/01/01 09:02:10;;;;;;;5.93;1.70;;;;;;;;;;4963620;28;20245;-86
2023/01/01 09:04:36;;;;;;;6.10;2.00;;;;;;;;;;4975628;28;20218;-87
2023/01/01 09:07:02;;;;;;;5.27;1.70;;;;;;;;;;4949415;28;20209;-87
2023/01/01 09:09:28;;;;;;;9.47;1.87;;;;;;;;;;4971852;28;20226;-80
2023/01/01 09:11:56;;;;;;;7.07;2.07;;;;;;;;;;4971722;28;20202;-80
2023/01/01 09:14:22;;;;;;;7.73;1.90;;;;;;;;;;4970328;28;20178;-80
2023/01/01 09:16:48;;;;;;;5.37;1.80;;;;;;;;;;4966053;28;20183;-80
2023/01/01 09:19:14;;;;;;;7.90;2.80;;;;;;;;;;4969005;28;20190;-80
2023/01/01 09:21:40;;;;;;;5.43;2.00;;;;;;;;;;4957310;28;21039;-80
2023/01/01 09:24:06;;;;;;;5.97;1.70;;;;;;;;;;4962289;28;20307;-80
2023/01/01 09:26:32;;;;;;;5.20;1.80;;;;;;;;;;4988589;28;20209;-86
2023/01/01 09:28:58;;;;;;;7.30;1.90;;;;;;;;;;4954952;28;20214;-85
2023/01/01 09:31:24;;;;;;;8.77;2.37;;;;;;;;;;4979742;28;20184;-86
2023/01/01 09:33:51;;;;;;;6.57;2.00;;;;;;;;;;4954323;28;20195;-85
2023/01/01 09:36:20;;;;;;;7.17;2.17;;;;;;;;;;4966583;28;20197;-86
2023/01/01 09:38:50;;;;;;;7.60;2.17;;;;;;;;;;4977640;28;20183;-86
2023/01/01 09:41:24;;;;;;;6.97;2.20;;;;;;;;;;4975637;28;20236;-85
2023/01/01 09:44:08;;;;;;;10.10;2.40;;;;;;;;;;4972925;28;20179;-86
2023/01/01 09:46:35;;;;;;;6.53;1.97;;;;;;;;;;4964462;28;20331;-87
2023/01/01 09:49:04;;;;;;;7.37;2.37;;;;;;;;;;4972145;28;20219;-87
2023/01/01 09:51:33;;;;;;;7.73;1.90;;;;;;;;;;4963847;28;20190;-88
2023/01/01 09:54:01;;;;;;;8.27;2.17;;;;;;;;;;4965053;28;20186;-87
2023/01/01 09:56:28;;;;;;;6.47;2.33;;;;;;;;;;4963605;28;20179;-87
2023/01/01 09:58:57;;;;;;;7.20;2.10;;;;;;;;;;4969737;28;20182;-79
2023/01/01 10:01:27;;;;;;;5.90;2.20;;;;;;;;;;4970193;28;20265;-79
2023/01/01 10:03:56;;;;;;;8.47;2.10;;;;;;;;;;4977743;28;20209;-79
2023/01/01 10:06:30;;;;;;;6.37;2.37;;;;;;;;;;4988330;28;20410;-80
2023/01/01 10:08:59;;;;;;;7.47;2.27;;;;;;;;;;4976048;28;20208;-80
2023/01/01 10:11:25;;;;;;;8.53;2.30;;;;;;;;;;4970220;28;20187;-80
2023/01/01 10:13:51;;;;;;;7.27;1.93;;;;;;;;;;4987757;28;20241;-80
2023/01/01 10:16:33;;;;;;;9.67;2.37;;;;;;;;;;4968439;28;20202;-80
2023/01/01 10:19:01;;;;;;;9.40;3.00;;;;;;;;;;4992207;28;20178;-81
2023/01/01 10:21:32;;;;;;;9.90;2.57;;;;;;;;;;4990375;28;20212;-80
2023/01/01 10:24:05;;;;;;;10.17;2.50;;;;;;;;;;4989124;28;20236;-80
2023/01/01 10:26:33;;;;;;;7.63;2.77;;;;;;;;;;5000673;28;20187;-80
2023/01/01 10:29:02;;;;;;;10.07;3.00;;;;;;;;;;4990485;28;20463;-80
2023/01/01 10:31:30;;;;;;;11.10;2.90;;;;;;;;;;4980040;28;20177;-81
2023/01/01 10:33:56;;;;;;;7.83;2.90;;;;;;;;;;4994543;28;20170;-80
2023/01/01 10:36:23;;;;;;;10.10;2.67;;;;;;;;;;4987657;28;20189;-80
2023/01/01 10:38:50;;;;;;;9.63;2.27;;;;;;;;;;4969218;28;20276;-80
2023/01/01 10:41:16;;;;;;;9.13;2.30;;;;;;;;;;4977339;28;20328;-80
2023/01/01 10:43:42;;;;;;;8.30;2.47;;;;;;;;;;4983063;28;20260;-79
2023/01/01 10:46:12;;;;;;;9.40;2.70;;;;;;;;;;4956100;28;20193;-79
2023/01/01 10:48:38;;;;;;;11.17;2.97;;;;;;;;;;4967693;28;20206;-79
2023/01/01 10:51:13;;;;;;;12.23;3.07;;;;;;;;;;4955585;28;20194;-80
2023/01/01 10:53:43;;;;;;;12.50;2.60;;;;;;;;;;4959374;28;20207;-79
2023/01/01 10:56:13;;;;;;;8.40;2.47;;;;;;;;;;4978181;28;20249;-79
2023/01/01 10:58:42;;;;;;;10.13;2.37;;;;;;;;;;4978144;28;20237;-79
2023/01/01 11:01:10;;;;;;;9.13;2.30;;;;;;;;;;4966345;28;20194;-79
2023/01/01 11:03:36;;;;;;;11.77;2.73;;;;;;;;;;4958817;28;20209;-79
2023/01/01 11:06:05;;;;;;;8.23;2.60;;;;;;;;;;4969143;28;20186;-86
2023/01/01 11:08:33;;;;;;;12.37;2.53;;;;;;;;;;4970967;28;20296;-86
2023/01/01 11:11:00;;;;;;;9.67;2.60;;;;;;;;;;4969241;28;20209;-85
2023/01/01 11:13:27;;;;;;;8.33;2.40;;;;;;;;;;4975922;28;20186;-86
2023/01/01 11:15:53;;;;;;;6.70;2.27;;;;;;;;;;4959475;28;20278;-86
2023/01/01 11:18:19;;;;;;;5.80;2.07;;;;;;;;;;4974900;28;20268;-86
2023/01/01 11:20:50;;;;;;;9.73;2.47;;;;;;;;;;4959024;28;20222;-79
2023/01/01 11:23:18;;;;;;;12.00;2.87;;;;;;;;;;4974763;28;20230;-86
2023/01/01 11:25:56;;;;;;;7.30;2.50;;;;;;;;;;4966130;28;20274;-87
2023/01/01 11:28:22;;;;;;;9.37;2.87;;;;;;;;;;4973967;28;20221;-86
2023/01/01 11:31:00;;;;;;;8.83;2.77;;;;;;;;;;4959832;28;20198;-86
2023/01/01 11:33:29;;;;;;;8.93;2.90;;;;;;;;;;4961138;28;20175;-87
2023/01/01 11:35:55;;;;;;;9.87;3.10;;;;;;;;;;4958153;28;20182;-86
2023/01/01 11:38:23;;;;;;;8.97;3.33;;;;;;;;;;4974638;28;20272;-86
2023/01/01 11:40:52;;;;;;;7.30;3.30;;;;;;;;;;4972846;28;20193;-79
2023/01/01 11:43:26;;;;;;;8.10;3.40;;;;;;;;;;4977928;28;20186;-79
2023/01/01 11:45:54;;;;;;;8.83;3.23;;;;;;;;;;4976059;28;20177;-79
2023/01/01 11:48:23;;;;;;;8.07;3.07;;;;;;;;;;4970687;28;20250;-79
2023/01/01 11:50:54;;;;;;;10.47;3.60;;;;;;;;;;4962771;28;20192;-79
2023/01/01 11:53:26;;;;;;;11.60;3.77;;;;;;;;;;4970898;28;20186;-79
2023/01/01 11:56:01;;;;;;;12.20;4.33;;;;;;;;;;4965454;28;20205;-79
2023/01/01 11:58:27;;;;;;;11.97;4.70;;;;;;;;;;4978122;28;20186;-80
2023/01/01 12:00:59;;;;;;;10.30;4.40;;;;;;;;;;4979706;28;20265;-77
2023/01/01 12:03:40;;;;;;;10.33;4.33;;;;;;;;;;4958384;28;20183;-79
2023/01/01 12:06:24;;;;;;;9.87;4.73;;;;;;;;;;4979237;28;20197;-79
2023/01/01 12:08:50;;;;;;;14.00;5.70;;;;;;;;;;4963627;28;20225;-78
2023/01/01 12:11:19;;;;;;;9.57;4.83;;;;;;;;;;4958126;28;20190;-79
2023/01/01 12:13:53;;;;;;;13.90;4.87;;;;;;;;;;4965959;28;20206;-79
2023/01/01 12:16:48;;;;;;;9.97;4.90;;;;;;;;;;4974920;28;20273;-78
2023/01/01 12:19:26;;;;;;;12.33;4.70;;;;;;;;;;4883325;28;20197;-79
2023/01/01 12:21:54;;;;;;;10.90;4.77;;;;;;;;;;4995275;28;20186;-79
2023/01/01 12:24:21;;;;;;;11.37;4.27;;;;;;;;;;4981015;28;20226;-79
2023/01/01 12:26:53;;;;;;;10.10;4.30;;;;;;;;;;4988914;28;20186;-79
2023/01/01 12:29:25;;;;;;;13.73;4.40;;;;;;;;;;5000154;28;20248;-84
2023/01/01 12:31:51;;;;;;;11.80;4.50;;;;;;;;;;4996617;28;20173;-84
2023/01/01 12:34:20;;;;;;;12.90;4.50;;;;;;;;;;4982477;28;20209;-85
2023/01/01 12:37:05;;;;;;;11.70;4.57;;;;;;;;;;4973639;28;20278;-85
2023/01/01 12:39:46;;;;;;;11.27;4.50;;;;;;;;;;4974719;28;20229;-84
2023/01/01 12:42:13;;;;;;;12.30;4.97;;;;;;;;;;4966920;28;20186;-84
2023/01/01 12:44:39;;;;;;;9.40;4.37;;;;;;;;;;4969644;28;20191;-85
2023/01/01 12:47:17;;;;;;;13.67;4.73;;;;;;;;;;4961292;28;20187;-82
2023/01/01 12:49:45;;;;;;;11.40;4.07;;;;;;;;;;4961615;28;20214;-81
2023/01/01 12:52:21;;;;;;;13.43;4.17;;;;;;;;;;4978410;28;20197;-81
2023/01/01 12:54:59;;;;;;;14.40;4.30;;;;;;;;;;4961283;28;20186;-82
2023/01/01 12:57:32;;;;;;;12.77;4.27;;;;;;;;;;4961195;28;20178;-82
2023/01/01 13:00:01;;;;;;;10.83;3.67;;;;;;;;;;4961174;28;20225;-82
2023/01/01 13:02:32;;;;;;;13.03;4.33;;;;;;;;;;4961265;28;20183;-84
2023/01/01 13:05:14;;;;;;;11.20;4.30;;;;;;;;;;4961612;28;20186;-85
2023/01/01 13:07:42;;;;;;;9.10;4.03;;;;;;;;;;4960773;28;20178;-85
2023/01/01 13:10:27;;;;;;;14.27;4.60;;;;;;;;;;4961211;28;20186;-85
2023/01/01 13:12:54;;;;;;;13.97;3.80;;;;;;;;;;4977995;28;20254;-85
2023/01/01 13:15:40;;;;;;;12.70;3.43;;;;;;;;;;4960944;28;20182;-85
2023/01/01 13:18:15;;;;;;;12.37;3.90;;;;;;;;;;4961084;28;20186;-85
2023/01/01 13:20:44;;;;;;;11.10;3.30;;;;;;;;;;4961540;28;20186;-81
2023/01/01 13:23:28;;;;;;;11.77;3.67;;;;;;;;;;4974844;28;20237;-82
2023/01/01 13:26:13;;;;;;;13.07;3.70;;;;;;;;;;4980049;28;20182;-82
2023/01/01 13:28:39;;;;;;;12.67;3.80;;;;;;;;;;4980215;28;20209;-82
2023/01/01 13:31:05;;;;;;;11.80;3.83;;;;;;;;;;4978849;28;20174;-82
2023/01/01 13:33:32;;;;;;;12.20;3.83;;;;;;;;;;4997104;28;20179;-82
2023/01/01 13:36:08;;;;;;;12.10;3.77;;;;;;;;;;4964255;28;20186;-79
2023/01/01 13:38:47;;;;;;;12.13;3.67;;;;;;;;;;4971359;28;20297;-80
2023/01/01 13:41:34;;;;;;;11.37;3.57;;;;;;;;;;4960892;28;20187;-80
2023/01/01 13:44:00;;;;;;;11.10;3.77;;;;;;;;;;4960407;28;20273;-80
2023/01/01 13:46:50;;;;;;;15.40;3.97;;;;;;;;;;4960288;28;20269;-80
2023/01/01 13:49:35;;;;;;;13.23;3.50;;;;;;;;;;4960458;28;20210;-80
2023/01/01 13:52:18;;;;;;;18.67;4.10;;;;;;;;;;4960219;28;20182;-80
2023/01/01 13:55:03;;;;;;;15.60;3.40;;;;;;;;;;4960191;28;20271;-80
2023/01/01 13:57:44;;;;;;;13.97;4.87;;;;;;;;;;4960026;28;20203;-80
2023/01/01 14:00:24;;;;;;;12.80;4.00;;;;;;;;;;4960385;28;20253;-80
2023/01/01 14:02:57;;;;;;;12.33;3.43;;;;;;;;;;4959828;28;20233;-80
2023/01/01 14:05:27;;;;;;;11.10;3.67;;;;;;;;;;4959867;28;20185;-80
2023/01/01 14:07:53;;;;;;;12.63;3.23;;;;;;;;;;4959902;28;20190;-80
2023/01/01 14:10:30;;;;;;;15.90;3.80;;;;;;;;;;4959971;28;20207;-86
2023/01/01 14:13:01;;;;;;;11.97;3.47;;;;;;;;;;4977083;28;20171;-86
2023/01/01 14:15:41;;;;;;;10.17;3.23;;;;;;;;;;4972940;28;20217;-86
2023/01/01 14:18:12;;;;;;;11.53;3.50;;;;;;;;;;4979010;28;20185;-86
2023/01/01 14:20:42;;;;;;;11.50;3.67;;;;;;;;;;4979503;28;20177;-86
2023/01/01 14:23:11;;;;;;;9.27;3.40;;;;;;;;;;4978376;23;20333;-80
2023/01/01 14:25:39;;;;;;;12.33;3.63;;;;;;;;;;4958061;28;20183;-85
2023/01/01 14:28:11;;;;;;;11.17;3.73;;;;;;;;;;4958815;28;20217;-86
2023/01/01 14:30:37;;;;;;;11.97;3.60;;;;;;;;;;4976576;28;20178;-86
2023/01/01 14:33:04;;;;;;;12.90;4.00;;;;;;;;;;4938701;28;20187;-86
2023/01/01 14:35:30;;;;;;;11.37;4.33;;;;;;;;;;4943553;28;20183;-85
2023/01/01 14:37:56;;;;;;;14.10;4.37;;;;;;;;;;4959126;28;20186;-86
2023/01/01 14:40:28;;;;;;;14.47;3.63;;;;;;;;;;4943126;28;20245;-85
2023/01/01 14:43:04;;;;;;;14.73;4.27;;;;;;;;;;4958570;28;20270;-85
2023/01/01 14:45:32;;;;;;;14.80;3.93;;;;;;;;;;4958731;28;20273;-84
2023/01/01 14:47:59;;;;;;;13.17;3.97;;;;;;;;;;4959410;28;20175;-86
2023/01/01 14:50:25;;;;;;;10.13;3.90;;;;;;;;;;4943389;28;20213;-85
2023/01/01 14:52:55;;;;;;;13.33;3.77;;;;;;;;;;4958927;28;20206;-86
2023/01/01 14:55:21;;;;;;;14.07;4.00;;;;;;;;;;4959294;28;20206;-85
2023/01/01 14:57:50;;;;;;;11.37;4.10;;;;;;;;;;4958821;28;20201;-85
2023/01/01 15:00:24;;;;;;;11.97;3.40;;;;;;;;;;4958659;28;20183;-80